Time;durP1;ratioP1;P1;durP2;ratioP2;P2;SDS_P1;SDS_P2;PMS_P1;PMS_P2;Temp;Humidity;BMP_temperature;BMP_pressure;BME280_temperature;BME280_humidity;BME280_pressure;Samples;Min_cycle;Max_cycle;Signal;HPM_P1;HPM_P2
2021/07/15 00:01:33;;;;;;;;;15.00;13.50;;;;;;;;5052776;28;48256;-86
2021/07/15 00:03:58;;;;;;;;;12.00;12.00;;;;;;;;5057784;28;46905;-86
2021/07/15 00:06:24;;;;;;;;;13.25;11.25;;;;;;;;5057538;28;46953;-85
2021/07/15 00:08:51;;;;;;;;;12.75;12.00;;;;;;;;5058198;28;47140;-85
2021/07/15 00:11:17;;;;;;;;;12.75;11.25;;;;;;;;5057411;28;47951;-86
2021/07/15 00:13:42;;;;;;;;;17.50;14.00;;;;;;;;5057259;28;46801;-86
2021/07/15 00:16:09;;;;;;;;;15.75;13.00;;;;;;;;5070458;28;46781;-85
2021/07/15 00:18:37;;;;;;;;;11.50;11.50;;;;;;;;5057898;28;46916;-86
2021/07/15 00:21:05;;;;;;;;;16.00;14.25;;;;;;;;5063104;28;47098;-86
2021/07/15 00:23:30;;;;;;;;;13.75;12.75;;;;;;;;5050685;28;47932;-85
2021/07/15 00:25:57;;;;;;;;;13.75;12.75;;;;;;;;5062882;28;47037;-86
2021/07/15 00:28:22;;;;;;;;;15.25;13.00;;;;;;;;5066330;28;47042;-86
2021/07/15 00:30:48;;;;;;;;;14.75;14.75;;;;;;;;5057115;28;47384;-86
2021/07/15 00:33:13;;;;;;;;;11.50;11.50;;;;;;;;5061384;28;46899;-85
2021/07/15 00:35:38;;;;;;;;;11.00;10.00;;;;;;;;5072829;28;46956;-86
2021/07/15 00:38:05;;;;;;;;;15.50;14.50;;;;;;;;5039465;28;46798;-85
2021/07/15 00:40:30;;;;;;;;;14.00;12.00;;;;;;;;5069922;28;46840;-86
2021/07/15 00:42:56;;;;;;;;;14.75;13.75;;;;;;;;5067034;28;46939;-86
2021/07/15 00:45:21;;;;;;;;;16.00;14.00;;;;;;;;5060732;28;46937;-87
2021/07/15 00:47:47;;;;;;;;;11.75;11.00;;;;;;;;5068097;28;46955;-86
2021/07/15 00:50:12;;;;;;;;;17.75;17.00;;;;;;;;5061353;28;46806;-86
2021/07/15 00:52:39;;;;;;;;;19.00;18.00;;;;;;;;5070806;28;47091;-89
2021/07/15 00:55:08;;;;;;;;;15.25;13.50;;;;;;;;5060790;28;46971;-87
2021/07/15 00:57:33;;;;;;;;;20.25;16.00;;;;;;;;5060442;28;47031;-86
2021/07/15 00:59:59;;;;;;;;;16.75;14.25;;;;;;;;5060204;28;46792;-86
2021/07/15 01:02:24;;;;;;;;;18.25;16.00;;;;;;;;5075834;28;47395;-86
2021/07/15 01:04:50;;;;;;;;;13.25;12.50;;;;;;;;5080900;28;46972;-86
2021/07/15 01:07:15;;;;;;;;;10.00;8.00;;;;;;;;5065903;28;47016;-85
2021/07/15 01:09:40;;;;;;;;;16.00;14.75;;;;;;;;5060316;28;46968;-86
2021/07/15 01:12:17;;;;;;;;;16.00;15.00;;;;;;;;5060223;28;46862;-86
2021/07/15 01:14:51;;;;;;;;;18.50;16.50;;;;;;;;5060249;28;46948;-85
2021/07/15 01:17:19;;;;;;;;;15.25;14.25;;;;;;;;5068729;28;46969;-85
2021/07/15 01:19:47;;;;;;;;;23.00;21.25;;;;;;;;5080313;28;47647;-86
2021/07/15 01:22:34;;;;;;;;;16.75;14.50;;;;;;;;5052839;28;47088;-88
2021/07/15 01:25:12;;;;;;;;;26.25;21.00;;;;;;;;5042011;28;46929;-86
2021/07/15 01:27:48;;;;;;;;;15.25;15.00;;;;;;;;5060164;28;46912;-86
2021/07/15 01:30:13;;;;;;;;;16.75;13.75;;;;;;;;5060090;28;46991;-86
2021/07/15 01:32:54;;;;;;;;;23.00;18.50;;;;;;;;5054488;28;47175;-87
2021/07/15 01:35:23;;;;;;;;;17.50;15.50;;;;;;;;5053684;28;47110;-87
2021/07/15 01:37:50;;;;;;;;;16.00;13.75;;;;;;;;5043320;28;46914;-87
2021/07/15 01:40:26;;;;;;;;;14.25;14.00;;;;;;;;5060930;28;47954;-87
2021/07/15 01:42:59;;;;;;;;;20.75;17.75;;;;;;;;5067011;28;47046;-87
2021/07/15 01:45:25;;;;;;;;;19.75;17.50;;;;;;;;5065069;28;46989;-88
2021/07/15 01:47:51;;;;;;;;;18.25;15.75;;;;;;;;5069146;28;46945;-87
2021/07/15 01:50:16;;;;;;;;;17.00;15.00;;;;;;;;5064524;28;46992;-87
2021/07/15 01:52:42;;;;;;;;;21.25;17.50;;;;;;;;5059920;28;46772;-88
2021/07/15 01:55:07;;;;;;;;;16.00;16.00;;;;;;;;5059575;28;47032;-88
2021/07/15 01:57:34;;;;;;;;;20.25;19.50;;;;;;;;5068721;28;46968;-87
2021/07/15 02:00:00;;;;;;;;;14.75;13.25;;;;;;;;5045556;28;46944;-88
2021/07/15 02:02:27;;;;;;;;;20.50;18.00;;;;;;;;5059957;28;46814;-89
2021/07/15 02:04:54;;;;;;;;;23.25;21.50;;;;;;;;5059166;28;47242;-88
2021/07/15 02:07:21;;;;;;;;;15.00;14.00;;;;;;;;5059998;28;47022;-88
2021/07/15 02:09:47;;;;;;;;;14.00;13.75;;;;;;;;5041128;28;49588;-88
2021/07/15 02:12:12;;;;;;;;;17.00;17.00;;;;;;;;5041085;28;47426;-87
2021/07/15 02:14:37;;;;;;;;;20.75;14.00;;;;;;;;5058699;28;46854;-88
2021/07/15 02:17:03;;;;;;;;;19.25;16.75;;;;;;;;5072473;28;47290;-88
2021/07/15 02:19:29;;;;;;;;;14.25;13.75;;;;;;;;5059956;28;47052;-87
2021/07/15 02:21:55;;;;;;;;;18.25;16.50;;;;;;;;5066775;28;46966;-87
2021/07/15 02:24:23;;;;;;;;;15.50;14.50;;;;;;;;5072278;28;46819;-87
2021/07/15 02:26:50;;;;;;;;;19.25;19.00;;;;;;;;5060907;28;47329;-86
2021/07/15 02:29:16;;;;;;;;;16.75;16.00;;;;;;;;5059738;28;47866;-87
2021/07/15 02:31:43;;;;;;;;;21.25;19.75;;;;;;;;5071437;28;46861;-87
2021/07/15 02:34:12;;;;;;;;;15.50;13.75;;;;;;;;5070769;28;47140;-86
2021/07/15 02:36:38;;;;;;;;;16.25;14.50;;;;;;;;5072531;27;47023;-86
2021/07/15 02:39:04;;;;;;;;;20.75;20.75;;;;;;;;5060505;28;48058;-86
2021/07/15 02:41:30;;;;;;;;;18.75;14.75;;;;;;;;5059136;28;47400;-87
2021/07/15 02:43:57;;;;;;;;;15.75;13.50;;;;;;;;5063402;28;48082;-86
2021/07/15 02:46:23;;;;;;;;;18.25;17.75;;;;;;;;5068060;28;47184;-86
2021/07/15 02:48:48;;;;;;;;;14.50;14.00;;;;;;;;5072280;28;47595;-87
2021/07/15 02:51:14;;;;;;;;;16.50;16.50;;;;;;;;5058828;28;46894;-87
2021/07/15 02:53:39;;;;;;;;;21.75;18.25;;;;;;;;5069714;28;46869;-87
2021/07/15 02:56:13;;;;;;;;;20.00;18.00;;;;;;;;5062248;27;47171;-87
2021/07/15 02:58:44;;;;;;;;;21.75;20.00;;;;;;;;5071790;28;47075;-88
2021/07/15 03:01:13;;;;;;;;;20.25;18.00;;;;;;;;5058875;28;46833;-87
2021/07/15 03:03:58;;;;;;;;;13.00;13.00;;;;;;;;5058625;28;46924;-87
2021/07/15 03:06:31;;;;;;;;;17.75;16.75;;;;;;;;5059864;28;47188;-87
2021/07/15 03:08:58;;;;;;;;;20.25;19.25;;;;;;;;5053610;28;48534;-87
2021/07/15 03:11:29;;;;;;;;;22.75;20.00;;;;;;;;5058389;28;46977;-87
2021/07/15 03:13:55;;;;;;;;;17.75;16.50;;;;;;;;5058109;28;46904;-90
2021/07/15 03:16:21;;;;;;;;;22.50;18.75;;;;;;;;5041545;28;46972;-87
2021/07/15 03:18:48;;;;;;;;;17.50;16.00;;;;;;;;5068617;28;47076;-88
2021/07/15 03:21:16;;;;;;;;;22.50;19.00;;;;;;;;5066719;28;47095;-89
2021/07/15 03:23:43;;;;;;;;;16.25;16.25;;;;;;;;5075569;28;47133;-87
2021/07/15 03:26:08;;;;;;;;;19.50;16.75;;;;;;;;5040593;28;47364;-89
2021/07/15 03:28:36;;;;;;;;;17.25;16.50;;;;;;;;5043086;28;48316;-87
2021/07/15 03:31:06;;;;;;;;;17.75;17.00;;;;;;;;5068841;28;46825;-88
2021/07/15 03:33:32;;;;;;;;;20.75;19.75;;;;;;;;5064727;28;47194;-88
2021/07/15 03:35:58;;;;;;;;;21.75;19.00;;;;;;;;5050149;28;46824;-87
2021/07/15 03:38:24;;;;;;;;;23.50;20.25;;;;;;;;5052567;28;48257;-88
2021/07/15 03:40:50;;;;;;;;;21.00;19.50;;;;;;;;5070101;28;46919;-87
2021/07/15 03:43:15;;;;;;;;;17.75;16.50;;;;;;;;5059084;28;47094;-87
2021/07/15 03:45:45;;;;;;;;;18.25;16.50;;;;;;;;5078640;28;47231;-89
2021/07/15 03:48:11;;;;;;;;;22.50;19.25;;;;;;;;5062401;28;47083;-87
2021/07/15 03:50:36;;;;;;;;;16.25;14.25;;;;;;;;5058097;28;47245;-88
2021/07/15 03:53:03;;;;;;;;;22.75;21.00;;;;;;;;5057952;28;47107;-88
2021/07/15 03:55:31;;;;;;;;;17.50;16.00;;;;;;;;5059126;28;46946;-86
2021/07/15 03:57:57;;;;;;;;;21.75;20.75;;;;;;;;5048820;28;47557;-88
2021/07/15 04:00:23;;;;;;;;;18.00;17.50;;;;;;;;5070743;28;46970;-87
2021/07/15 04:02:50;;;;;;;;;18.75;17.50;;;;;;;;5058324;28;46886;-88
2021/07/15 04:05:19;;;;;;;;;16.75;16.25;;;;;;;;5058123;28;47019;-88
2021/07/15 04:07:45;;;;;;;;;19.75;19.00;;;;;;;;5057685;28;47729;-88
2021/07/15 04:10:12;;;;;;;;;16.50;16.50;;;;;;;;5058670;28;47047;-88
2021/07/15 04:12:39;;;;;;;;;19.00;18.50;;;;;;;;5057311;28;46767;-88
2021/07/15 04:15:07;;;;;;;;;8.75;8.75;;;;;;;;5053338;28;47220;-89
2021/07/15 04:17:50;;;;;;;;;23.25;21.50;;;;;;;;5071129;28;47120;-88
2021/07/15 04:20:18;;;;;;;;;19.25;15.75;;;;;;;;5040826;28;47113;-89
2021/07/15 04:22:44;;;;;;;;;19.25;18.50;;;;;;;;5077558;28;46966;-88
2021/07/15 04:25:13;;;;;;;;;18.00;16.75;;;;;;;;5051244;28;47353;-88
2021/07/15 04:27:41;;;;;;;;;22.25;20.75;;;;;;;;5073009;28;46968;-87
2021/07/15 04:30:07;;;;;;;;;14.50;14.00;;;;;;;;5043054;28;47040;-88
2021/07/15 04:32:42;;;;;;;;;17.75;16.00;;;;;;;;5061075;28;47042;-88
2021/07/15 04:35:09;;;;;;;;;21.00;18.50;;;;;;;;5071189;28;47022;-88
2021/07/15 04:37:35;;;;;;;;;13.00;12.75;;;;;;;;5074405;28;47988;-87
2021/07/15 04:40:01;;;;;;;;;19.50;17.50;;;;;;;;5063280;27;47056;-87
2021/07/15 04:42:27;;;;;;;;;21.00;19.25;;;;;;;;5074262;28;46928;-88
2021/07/15 04:44:53;;;;;;;;;14.25;13.75;;;;;;;;5048239;28;47427;-88
2021/07/15 04:47:20;;;;;;;;;20.00;17.75;;;;;;;;5060862;28;48393;-88
2021/07/15 04:49:46;;;;;;;;;16.00;13.50;;;;;;;;5060804;28;46760;-88
2021/07/15 04:52:12;;;;;;;;;18.25;15.50;;;;;;;;5060627;28;46881;-87
2021/07/15 04:54:38;;;;;;;;;14.75;14.25;;;;;;;;5060939;28;47058;-88
2021/07/15 04:57:05;;;;;;;;;15.00;15.00;;;;;;;;5042386;28;47021;-87
2021/07/15 04:59:32;;;;;;;;;19.50;19.25;;;;;;;;5063361;28;47063;-87
2021/07/15 05:01:57;;;;;;;;;22.00;19.50;;;;;;;;5072316;28;46923;-87
2021/07/15 05:04:23;;;;;;;;;16.25;14.50;;;;;;;;5060671;28;46891;-88
2021/07/15 05:06:48;;;;;;;;;17.25;17.25;;;;;;;;5060790;28;48045;-87
2021/07/15 05:09:14;;;;;;;;;20.50;17.00;;;;;;;;5060389;28;46887;-87
2021/07/15 05:11:39;;;;;;;;;16.75;14.75;;;;;;;;5060388;28;46955;-87
2021/07/15 05:14:05;;;;;;;;;19.00;15.00;;;;;;;;5060302;28;46817;-88
2021/07/15 05:16:31;;;;;;;;;24.25;22.50;;;;;;;;5060595;28;47015;-88
2021/07/15 05:18:57;;;;;;;;;23.75;21.50;;;;;;;;5060151;28;46946;-87
2021/07/15 05:21:22;;;;;;;;;22.75;16.75;;;;;;;;5070132;28;46955;-88
2021/07/15 05:23:47;;;;;;;;;19.50;18.00;;;;;;;;5062328;28;47078;-88
2021/07/15 05:26:14;;;;;;;;;19.75;17.75;;;;;;;;5041993;28;47873;-89
2021/07/15 05:28:40;;;;;;;;;26.75;24.00;;;;;;;;5059802;28;46914;-88
2021/07/15 05:31:06;;;;;;;;;25.50;23.75;;;;;;;;5068916;28;46876;-88
2021/07/15 05:33:31;;;;;;;;;29.50;28.75;;;;;;;;5066829;28;47233;-88
2021/07/15 05:35:56;;;;;;;;;25.75;23.00;;;;;;;;5076951;28;47790;-89
2021/07/15 05:38:22;;;;;;;;;17.75;16.50;;;;;;;;5068039;28;47055;-88
2021/07/15 05:40:47;;;;;;;;;19.00;17.25;;;;;;;;5070795;28;46912;-87
2021/07/15 05:43:12;;;;;;;;;23.25;20.25;;;;;;;;5062280;28;47145;-88
2021/07/15 05:45:38;;;;;;;;;20.00;18.25;;;;;;;;5084291;27;47745;-87
2021/07/15 05:48:03;;;;;;;;;17.00;16.75;;;;;;;;5057382;28;47768;-88
2021/07/15 05:50:29;;;;;;;;;23.00;19.33;;;;;;;;5069069;28;46922;-88
2021/07/15 05:52:54;;;;;;;;;18.75;16.75;;;;;;;;5054257;28;47068;-88
2021/07/15 05:55:19;;;;;;;;;15.25;15.00;;;;;;;;5042359;28;48654;-88
2021/07/15 05:57:45;;;;;;;;;15.00;14.25;;;;;;;;5061416;28;46986;-88
2021/07/15 06:00:11;;;;;;;;;16.00;16.00;;;;;;;;5065395;28;46878;-88
2021/07/15 06:02:36;;;;;;;;;15.75;14.25;;;;;;;;5070049;27;47034;-87
2021/07/15 06:05:02;;;;;;;;;18.50;17.25;;;;;;;;5071011;28;49290;-88
2021/07/15 06:07:28;;;;;;;;;18.50;18.00;;;;;;;;5079813;28;47112;-88
2021/07/15 06:09:53;;;;;;;;;10.50;10.50;;;;;;;;5048723;28;47035;-88
2021/07/15 06:12:19;;;;;;;;;14.25;13.25;;;;;;;;5051036;28;47239;-88
2021/07/15 06:14:44;;;;;;;;;14.50;13.25;;;;;;;;5059109;28;47206;-88
2021/07/15 06:17:10;;;;;;;;;19.75;18.25;;;;;;;;5059407;28;46956;-89
2021/07/15 06:19:35;;;;;;;;;16.50;16.50;;;;;;;;5059221;28;46889;-87
2021/07/15 06:22:00;;;;;;;;;14.75;12.75;;;;;;;;5054862;28;47027;-88
2021/07/15 06:24:26;;;;;;;;;15.00;14.75;;;;;;;;5070903;28;47905;-88
2021/07/15 06:26:59;;;;;;;;;16.25;14.50;;;;;;;;5041036;28;46917;-88
2021/07/15 06:29:26;;;;;;;;;15.50;15.50;;;;;;;;5066864;28;46961;-88
2021/07/15 06:31:51;;;;;;;;;14.75;13.50;;;;;;;;5064919;28;47787;-88
2021/07/15 06:34:16;;;;;;;;;18.75;16.00;;;;;;;;5053520;28;48178;-87
2021/07/15 06:36:42;;;;;;;;;8.50;8.25;;;;;;;;5078446;27;46936;-93
2021/07/15 06:39:11;;;;;;;;;13.75;12.50;;;;;;;;5049906;28;46974;-93
2021/07/15 06:41:37;;;;;;;;;13.75;13.25;;;;;;;;5064458;28;46925;-93
2021/07/15 06:44:03;;;;;;;;;14.75;13.00;;;;;;;;5042305;28;48472;-93
2021/07/15 06:46:28;;;;;;;;;10.25;10.25;;;;;;;;5044067;28;47790;-91
2021/07/15 06:48:54;;;;;;;;;15.00;14.00;;;;;;;;5070213;28;47018;-93
2021/07/15 06:51:20;;;;;;;;;11.00;11.00;;;;;;;;5055960;28;47006;-92
2021/07/15 06:53:46;;;;;;;;;15.50;14.50;;;;;;;;5041295;28;48334;-93
2021/07/15 06:56:12;;;;;;;;;16.75;16.00;;;;;;;;5059070;28;47279;-93
2021/07/15 06:58:37;;;;;;;;;12.50;12.00;;;;;;;;5070019;28;46867;-93
2021/07/15 07:01:02;;;;;;;;;16.50;15.50;;;;;;;;5061620;28;46891;-92
2021/07/15 07:03:28;;;;;;;;;16.00;15.00;;;;;;;;5045700;28;46883;-92
2021/07/15 07:05:53;;;;;;;;;15.50;14.75;;;;;;;;5041913;28;47306;-92
2021/07/15 07:08:19;;;;;;;;;13.00;12.00;;;;;;;;5059701;28;46715;-92
2021/07/15 07:10:47;;;;;;;;;15.75;14.25;;;;;;;;5079216;28;46715;-88
2021/07/15 07:13:12;;;;;;;;;12.00;10.75;;;;;;;;5065021;28;47206;-92
2021/07/15 07:15:40;;;;;;;;;13.50;13.00;;;;;;;;5079232;28;46927;-94
2021/07/15 07:18:08;;;;;;;;;14.00;12.75;;;;;;;;5064384;28;46910;-91
2021/07/15 07:24:06;;;;;;;;;;;;;;;;;;;;;
2021/07/15 07:26:32;;;;;;;;;11.00;9.50;;;;;;;;5056370;28;75535;-89
2021/07/15 07:28:57;;;;;;;;;19.00;14.75;;;;;;;;5072101;28;46880;-92
2021/07/15 07:31:22;;;;;;;;;15.50;14.25;;;;;;;;5047954;28;46966;-87
2021/07/15 07:33:48;;;;;;;;;13.25;12.50;;;;;;;;5073160;28;46872;-87
2021/07/15 07:36:14;;;;;;;;;11.25;11.00;;;;;;;;5070721;28;46990;-89
2021/07/15 07:38:39;;;;;;;;;14.25;13.25;;;;;;;;5070754;28;46737;-89
2021/07/15 07:41:04;;;;;;;;;14.00;10.00;;;;;;;;5059156;28;46841;-88
2021/07/15 07:43:30;;;;;;;;;13.50;13.50;;;;;;;;5057703;28;47688;-89
2021/07/15 07:45:56;;;;;;;;;12.50;11.75;;;;;;;;5077217;28;46703;-85
2021/07/15 07:48:22;;;;;;;;;17.25;13.50;;;;;;;;5064219;28;46939;-85
2021/07/15 07:50:48;;;;;;;;;15.00;11.75;;;;;;;;5045928;28;47022;-79
2021/07/15 07:53:13;;;;;;;;;13.75;12.75;;;;;;;;5064839;28;48048;-79
2021/07/15 07:55:41;;;;;;;;;12.75;11.75;;;;;;;;5044913;28;46977;-80
2021/07/15 07:58:06;;;;;;;;;12.75;10.50;;;;;;;;5089062;27;47048;-80
2021/07/15 08:00:31;;;;;;;;;12.75;12.00;;;;;;;;5085681;27;47414;-83
2021/07/15 08:02:57;;;;;;;;;10.75;10.75;;;;;;;;5058085;28;46986;-84
2021/07/15 08:05:24;;;;;;;;;10.00;10.00;;;;;;;;5057821;28;46976;-83
2021/07/15 08:07:50;;;;;;;;;10.25;10.00;;;;;;;;5057461;28;47122;-84
2021/07/15 08:10:16;;;;;;;;;9.75;9.50;;;;;;;;5057758;28;47008;-84
2021/07/15 08:12:43;;;;;;;;;13.50;13.50;;;;;;;;5057079;28;48141;-83
2021/07/15 08:15:09;;;;;;;;;11.75;9.50;;;;;;;;5057513;28;47010;-84
2021/07/15 08:17:35;;;;;;;;;14.50;13.50;;;;;;;;5057854;28;47079;-85
2021/07/15 08:20:00;;;;;;;;;16.25;13.75;;;;;;;;5057781;28;46967;-84
2021/07/15 08:22:26;;;;;;;;;15.25;14.25;;;;;;;;5074620;28;47074;-84
2021/07/15 08:24:51;;;;;;;;;13.75;13.75;;;;;;;;5064164;28;46936;-85
2021/07/15 08:27:16;;;;;;;;;15.00;14.25;;;;;;;;5057497;28;46933;-84
2021/07/15 08:29:42;;;;;;;;;14.50;13.75;;;;;;;;5057577;28;46838;-84
2021/07/15 08:32:07;;;;;;;;;10.75;9.25;;;;;;;;5057306;28;47582;-84
2021/07/15 08:34:33;;;;;;;;;10.50;9.50;;;;;;;;5072070;28;46912;-84
2021/07/15 08:36:58;;;;;;;;;11.25;10.50;;;;;;;;5039366;28;46983;-84
2021/07/15 08:39:24;;;;;;;;;8.00;8.00;;;;;;;;5039377;28;46853;-84
2021/07/15 08:41:49;;;;;;;;;13.00;12.50;;;;;;;;5057263;28;46839;-84
2021/07/15 08:44:16;;;;;;;;;13.00;11.50;;;;;;;;5057151;28;46819;-84
2021/07/15 08:46:47;;;;;;;;;13.50;12.50;;;;;;;;5058277;28;46743;-84
2021/07/15 08:49:15;;;;;;;;;13.75;13.00;;;;;;;;5069079;28;46809;-85
2021/07/15 08:51:41;;;;;;;;;14.75;12.25;;;;;;;;5058457;28;46822;-85
2021/07/15 08:54:07;;;;;;;;;11.75;11.50;;;;;;;;5057312;28;47235;-84
2021/07/15 08:56:39;;;;;;;;;14.50;13.75;;;;;;;;5057103;28;47135;-85
2021/07/15 08:59:06;;;;;;;;;15.25;13.75;;;;;;;;5057103;28;46778;-86
2021/07/15 09:01:32;;;;;;;;;11.75;11.75;;;;;;;;5070619;28;47982;-85
2021/07/15 09:03:57;;;;;;;;;7.75;7.50;;;;;;;;5070543;28;46997;-85
2021/07/15 09:06:22;;;;;;;;;15.25;13.00;;;;;;;;5064118;28;47559;-85
2021/07/15 09:08:54;;;;;;;;;7.75;7.75;;;;;;;;5064170;28;47233;-86
2021/07/15 09:11:20;;;;;;;;;10.75;10.75;;;;;;;;5064573;28;47038;-86
2021/07/15 09:13:45;;;;;;;;;14.00;12.50;;;;;;;;5063283;28;46925;-85
2021/07/15 09:16:13;;;;;;;;;11.50;10.75;;;;;;;;5060706;28;46842;-86
2021/07/15 09:18:56;;;;;;;;;13.25;12.50;;;;;;;;5060449;28;47167;-85
2021/07/15 09:21:23;;;;;;;;;12.75;11.75;;;;;;;;5068939;28;47931;-85
2021/07/15 09:23:48;;;;;;;;;11.00;11.00;;;;;;;;5076588;28;47250;-85
2021/07/15 09:26:13;;;;;;;;;13.00;12.00;;;;;;;;5060362;28;46969;-85
2021/07/15 09:28:39;;;;;;;;;11.00;9.25;;;;;;;;5064068;28;46914;-85
2021/07/15 09:31:14;;;;;;;;;9.50;9.50;;;;;;;;5051488;28;48371;-85
2021/07/15 09:33:40;;;;;;;;;8.75;8.50;;;;;;;;5067993;27;47094;-85
2021/07/15 09:36:10;;;;;;;;;11.75;9.75;;;;;;;;5078162;28;47352;-85
2021/07/15 09:38:38;;;;;;;;;10.00;8.50;;;;;;;;5042263;28;47098;-86
2021/07/15 09:41:04;;;;;;;;;13.50;13.50;;;;;;;;5059906;28;47715;-85
2021/07/15 09:43:35;;;;;;;;;7.75;7.00;;;;;;;;5059731;28;47076;-85
2021/07/15 09:46:13;;;;;;;;;9.25;8.00;;;;;;;;5060031;28;46896;-86
2021/07/15 09:48:43;;;;;;;;;10.00;10.00;;;;;;;;5073951;28;46892;-87
2021/07/15 09:51:09;;;;;;;;;12.75;9.75;;;;;;;;5059817;28;47680;-86
2021/07/15 09:53:36;;;;;;;;;13.00;13.00;;;;;;;;5041573;28;46926;-86
2021/07/15 09:56:04;;;;;;;;;14.50;11.25;;;;;;;;5060030;28;46852;-86
2021/07/15 09:58:33;;;;;;;;;9.25;9.25;;;;;;;;5059621;28;46956;-87
2021/07/15 10:01:06;;;;;;;;;16.00;15.25;;;;;;;;5059861;28;47984;-87
2021/07/15 10:03:36;;;;;;;;;12.50;11.25;;;;;;;;5041470;28;48092;-87
2021/07/15 10:06:03;;;;;;;;;15.00;12.00;;;;;;;;5059968;28;46848;-86
2021/07/15 10:08:29;;;;;;;;;9.75;9.75;;;;;;;;5059652;28;46905;-86
2021/07/15 10:10:55;;;;;;;;;12.25;10.75;;;;;;;;5059379;28;47114;-86
2021/07/15 10:13:21;;;;;;;;;11.25;11.25;;;;;;;;5059218;28;46899;-86
2021/07/15 10:15:47;;;;;;;;;9.75;8.75;;;;;;;;5059854;28;46883;-86
2021/07/15 10:18:13;;;;;;;;;10.00;9.50;;;;;;;;5041315;28;47225;-86
2021/07/15 10:20:52;;;;;;;;;9.25;9.25;;;;;;;;5043583;28;48488;-86
2021/07/15 10:23:28;;;;;;;;;11.25;10.25;;;;;;;;5055732;28;47051;-87
2021/07/15 10:25:54;;;;;;;;;17.00;14.00;;;;;;;;5059129;28;46979;-88
2021/07/15 10:28:19;;;;;;;;;13.00;10.25;;;;;;;;5059158;28;47291;-87
2021/07/15 10:30:44;;;;;;;;;11.25;9.75;;;;;;;;5059183;28;46976;-87
2021/07/15 10:33:11;;;;;;;;;11.75;10.00;;;;;;;;5044598;28;46999;-87
2021/07/15 10:35:36;;;;;;;;;10.25;10.25;;;;;;;;5079468;28;46950;-87
2021/07/15 10:38:03;;;;;;;;;7.00;7.00;;;;;;;;5060816;28;47150;-87
2021/07/15 10:40:28;;;;;;;;;8.00;8.00;;;;;;;;5059132;28;48174;-89
2021/07/15 10:42:54;;;;;;;;;8.25;8.25;;;;;;;;5040460;28;46959;-88
2021/07/15 10:45:19;;;;;;;;;11.00;9.00;;;;;;;;5059383;28;47135;-90
2021/07/15 10:47:45;;;;;;;;;11.75;10.75;;;;;;;;5065179;28;47001;-88
2021/07/15 10:50:10;;;;;;;;;9.50;8.75;;;;;;;;5066893;28;46996;-88
2021/07/15 10:52:37;;;;;;;;;10.50;9.75;;;;;;;;5058639;28;46894;-87
2021/07/15 10:55:04;;;;;;;;;9.75;9.75;;;;;;;;5059046;28;46908;-88
2021/07/15 10:57:29;;;;;;;;;12.50;12.00;;;;;;;;5058441;28;47258;-87
2021/07/15 11:00:14;;;;;;;;;12.25;11.25;;;;;;;;5058655;28;46928;-88
2021/07/15 11:02:40;;;;;;;;;8.00;8.00;;;;;;;;5058659;28;47013;-87
2021/07/15 11:05:23;;;;;;;;;9.25;8.75;;;;;;;;5058722;28;47044;-88
2021/07/15 11:07:48;;;;;;;;;11.75;10.25;;;;;;;;5059020;28;47015;-87
2021/07/15 11:10:15;;;;;;;;;7.50;7.50;;;;;;;;5058339;28;47638;-87
2021/07/15 11:12:40;;;;;;;;;8.00;7.50;;;;;;;;5040059;28;47000;-87
2021/07/15 11:15:13;;;;;;;;;10.25;9.25;;;;;;;;5058549;28;46896;-87
2021/07/15 11:17:46;;;;;;;;;11.00;11.00;;;;;;;;5058810;28;47165;-88
2021/07/15 11:20:17;;;;;;;;;6.75;6.50;;;;;;;;5058264;28;47625;-87
2021/07/15 11:22:51;;;;;;;;;8.50;7.75;;;;;;;;5077420;28;46869;-88
2021/07/15 11:25:50;;;;;;;;;7.00;6.25;;;;;;;;5058652;28;46944;-87
2021/07/15 11:28:22;;;;;;;;;8.00;7.00;;;;;;;;5057658;28;47276;-87
2021/07/15 11:30:48;;;;;;;;;11.00;7.50;;;;;;;;5058098;28;48190;-87
2021/07/15 11:33:22;;;;;;;;;8.75;8.75;;;;;;;;5062340;27;47098;-87
2021/07/15 11:36:02;;;;;;;;;8.75;6.75;;;;;;;;5078390;28;46971;-87
2021/07/15 11:38:28;;;;;;;;;9.50;9.50;;;;;;;;5039954;28;47016;-88
2021/07/15 11:40:54;;;;;;;;;8.75;8.75;;;;;;;;5058048;28;47803;-87
2021/07/15 11:43:22;;;;;;;;;8.00;8.00;;;;;;;;5057907;28;47019;-88
2021/07/15 11:46:07;;;;;;;;;7.75;7.75;;;;;;;;5039756;28;46948;-88
2021/07/15 11:48:41;;;;;;;;;9.00;9.00;;;;;;;;5070965;28;47049;-88
2021/07/15 11:51:25;;;;;;;;;6.75;6.75;;;;;;;;5058153;28;47221;-87
2021/07/15 11:54:09;;;;;;;;;9.75;9.75;;;;;;;;5057807;28;47140;-87
2021/07/15 11:56:35;;;;;;;;;7.25;7.25;;;;;;;;5058011;28;46967;-86
2021/07/15 11:59:00;;;;;;;;;10.25;8.50;;;;;;;;5057516;28;47021;-87
2021/07/15 12:01:32;;;;;;;;;8.75;8.00;;;;;;;;5057666;28;47755;-86
2021/07/15 12:03:58;;;;;;;;;8.00;7.25;;;;;;;;5057573;28;47128;-87
2021/07/15 12:06:23;;;;;;;;;5.25;5.25;;;;;;;;5057824;28;46963;-87
2021/07/15 12:08:49;;;;;;;;;7.25;6.50;;;;;;;;5057647;28;46888;-87
2021/07/15 12:11:18;;;;;;;;;7.75;7.75;;;;;;;;5057401;28;47059;-88
2021/07/15 12:13:43;;;;;;;;;6.75;6.25;;;;;;;;5057122;28;46834;-87
2021/07/15 12:16:11;;;;;;;;;9.00;8.25;;;;;;;;5057835;28;46852;-88
2021/07/15 12:18:36;;;;;;;;;10.50;9.25;;;;;;;;5057811;28;47020;-89
2021/07/15 12:21:02;;;;;;;;;8.00;8.00;;;;;;;;5063030;28;47633;-88
2021/07/15 12:23:32;;;;;;;;;8.75;8.50;;;;;;;;5071278;28;46978;-87
2021/07/15 12:25:58;;;;;;;;;11.00;10.25;;;;;;;;5057449;28;46904;-89
2021/07/15 12:28:26;;;;;;;;;7.50;7.50;;;;;;;;5057606;28;46810;-90
2021/07/15 12:30:59;;;;;;;;;10.00;9.75;;;;;;;;5057347;28;47632;-88
2021/07/15 12:33:38;;;;;;;;;7.50;7.50;;;;;;;;5064436;27;47062;-88
2021/07/15 12:36:07;;;;;;;;;6.00;4.00;;;;;;;;5075360;28;46954;-87
2021/07/15 12:38:33;;;;;;;;;7.25;7.25;;;;;;;;5057763;28;46754;-87
2021/07/15 12:41:06;;;;;;;;;9.25;7.75;;;;;;;;5057001;28;47119;-87
2021/07/15 12:43:42;;;;;;;;;10.75;9.00;;;;;;;;5057064;28;46856;-88
2021/07/15 12:46:09;;;;;;;;;10.25;8.00;;;;;;;;5057108;28;46872;-87
2021/07/15 12:48:39;;;;;;;;;6.25;6.25;;;;;;;;5073045;28;46810;-88
2021/07/15 12:51:04;;;;;;;;;7.25;7.25;;;;;;;;5060765;28;47827;-87
2021/07/15 12:53:36;;;;;;;;;7.00;7.00;;;;;;;;5060918;28;46897;-88
2021/07/15 12:56:02;;;;;;;;;6.50;6.50;;;;;;;;5042679;28;46762;-89
2021/07/15 12:58:27;;;;;;;;;7.00;7.00;;;;;;;;5061359;28;47089;-88
2021/07/15 13:00:59;;;;;;;;;11.00;9.25;;;;;;;;5060497;28;47690;-90
2021/07/15 13:03:24;;;;;;;;;10.75;10.25;;;;;;;;5060699;28;46932;-89
2021/07/15 13:05:49;;;;;;;;;7.50;7.50;;;;;;;;5060713;28;46809;-89
2021/07/15 13:08:15;;;;;;;;;11.00;9.50;;;;;;;;5060808;28;47054;-88
2021/07/15 13:16:20;;;;;;;;;10.00;9.00;;;;;;;;5045985;28;46990;-89
2021/07/15 13:18:45;;;;;;;;;5.75;5.75;;;;;;;;5072248;28;47289;-88
2021/07/15 13:21:11;;;;;;;;;7.50;7.50;;;;;;;;5067236;28;47869;-90
2021/07/15 13:23:40;;;;;;;;;9.25;7.25;;;;;;;;5071911;28;46936;-89
2021/07/15 13:26:10;;;;;;;;;11.25;9.00;;;;;;;;5055649;28;46991;-90
2021/07/15 13:28:38;;;;;;;;;7.75;6.75;;;;;;;;5041917;28;47077;-89
2021/07/15 13:31:15;;;;;;;;;8.00;8.00;;;;;;;;5059931;28;47815;-89
2021/07/15 13:33:42;;;;;;;;;8.00;6.25;;;;;;;;5049711;28;46971;-87
2021/07/15 13:36:07;;;;;;;;;8.25;7.25;;;;;;;;5077581;28;47041;-89
2021/07/15 13:38:43;;;;;;;;;8.00;8.00;;;;;;;;5060348;28;46787;-89
2021/07/15 13:41:22;;;;;;;;;5.75;5.75;;;;;;;;5073702;28;48108;-89
2021/07/15 13:43:47;;;;;;;;;7.00;7.00;;;;;;;;5059728;28;47135;-87
2021/07/15 13:46:17;;;;;;;;;7.00;7.00;;;;;;;;5055081;28;46967;-88
2021/07/15 13:48:42;;;;;;;;;10.75;9.00;;;;;;;;5073774;28;46751;-88
2021/07/15 13:51:12;;;;;;;;;5.25;5.25;;;;;;;;5073288;28;46782;-89
2021/07/15 13:53:38;;;;;;;;;9.75;9.25;;;;;;;;5041618;28;47987;-89
2021/07/15 13:56:04;;;;;;;;;8.00;8.00;;;;;;;;5041753;28;47024;-90
2021/07/15 13:58:31;;;;;;;;;8.75;7.25;;;;;;;;5059634;28;47015;-89
2021/07/15 14:00:58;;;;;;;;;8.25;8.25;;;;;;;;5041098;28;47870;-89
2021/07/15 14:03:23;;;;;;;;;7.25;7.25;;;;;;;;5059889;28;46975;-89
2021/07/15 14:05:50;;;;;;;;;9.50;8.75;;;;;;;;5059830;28;47025;-87
2021/07/15 14:08:16;;;;;;;;;10.00;7.25;;;;;;;;5059939;28;46843;-88
2021/07/15 14:10:41;;;;;;;;;8.00;8.00;;;;;;;;5059364;28;46940;-90
2021/07/15 14:13:07;;;;;;;;;7.75;7.00;;;;;;;;5041007;28;47678;-89
2021/07/15 14:15:38;;;;;;;;;8.75;8.75;;;;;;;;5041402;28;47015;-89
2021/07/15 14:18:05;;;;;;;;;8.75;7.50;;;;;;;;5041483;28;47063;-89
2021/07/15 14:20:30;;;;;;;;;7.50;7.50;;;;;;;;5060952;28;46966;-90
2021/07/15 14:22:57;;;;;;;;;7.00;7.00;;;;;;;;5058526;28;46901;-89
2021/07/15 14:25:23;;;;;;;;;7.00;6.50;;;;;;;;5059676;28;46903;-90
2021/07/15 14:27:48;;;;;;;;;6.00;6.00;;;;;;;;5059184;28;46977;-91
2021/07/15 14:30:14;;;;;;;;;6.75;6.75;;;;;;;;5041350;28;48378;-89
2021/07/15 14:32:40;;;;;;;;;10.00;9.00;;;;;;;;5072512;27;47067;-90
2021/07/15 14:35:05;;;;;;;;;10.00;8.00;;;;;;;;5079280;28;47023;-91
2021/07/15 14:37:30;;;;;;;;;9.75;9.00;;;;;;;;5047188;28;46966;-91